sensor_id;sensor_type;location;lat;lon;timestamp;temperature;humidity
59703;DHT22;45570;48.782;8.332;2023-05-10T06:18:36;13.80;99.90
59703;DHT22;45570;48.782;8.332;2023-05-10T06:21:42;13.80;99.90
59703;DHT22;45570;48.782;8.332;2023-05-10T06:24:12;13.80;99.90
59703;DHT22;45570;48.782;8.332;2023-05-10T06:26:41;13.80;99.90
59703;DHT22;45570;48.782;8.332;2023-05-10T06:29:10;13.90;99.90
59703;DHT22;45570;48.782;8.332;2023-05-10T06:31:39;13.90;99.90
59703;DHT22;45570;48.782;8.332;2023-05-10T06:34:10;14.00;99.90
59703;DHT22;45570;48.782;8.332;2023-05-10T06:36:39;14.00;99.90
59703;DHT22;45570;48.782;8.332;2023-05-10T06:39:08;14.10;99.90
59703;DHT22;45570;48.782;8.332;2023-05-10T06:41:39;14.20;99.90
59703;DHT22;45570;48.782;8.332;2023-05-10T06:44:08;14.10;99.90
59703;DHT22;45570;48.782;8.332;2023-05-10T06:46:38;14.10;99.90
59703;DHT22;45570;48.782;8.332;2023-05-10T06:49:09;14.20;99.90
59703;DHT22;45570;48.782;8.332;2023-05-10T06:51:38;14.20;99.90
59703;DHT22;45570;48.782;8.332;2023-05-10T06:54:07;14.10;99.90
59703;DHT22;45570;48.782;8.332;2023-05-10T06:56:36;14.20;99.90
59703;DHT22;45570;48.782;8.332;2023-05-10T06:59:06;14.30;99.90
59703;DHT22;45570;48.782;8.332;2023-05-10T07:01:35;14.40;99.90
59703;DHT22;45570;48.782;8.332;2023-05-10T07:04:04;14.30;99.90
59703;DHT22;45570;48.782;8.332;2023-05-10T07:06:36;14.40;99.90
59703;DHT22;45570;48.782;8.332;2023-05-10T07:09:05;14.40;99.90
59703;DHT22;45570;48.782;8.332;2023-05-10T07:11:35;14.50;99.90
59703;DHT22;45570;48.782;8.332;2023-05-10T07:14:05;14.40;99.90
59703;DHT22;45570;48.782;8.332;2023-05-10T07:16:34;14.30;99.90
59703;DHT22;45570;48.782;8.332;2023-05-10T07:19:04;14.30;99.90
59703;DHT22;45570;48.782;8.332;2023-05-10T07:21:35;14.20;99.90
59703;DHT22;45570;48.782;8.332;2023-05-10T07:24:05;14.20;99.90
59703;DHT22;45570;48.782;8.332;2023-05-10T07:26:34;14.20;99.90
59703;DHT22;45570;48.782;8.332;2023-05-10T07:29:03;14.20;99.90
59703;DHT22;45570;48.782;8.332;2023-05-10T07:31:33;14.30;99.90
59703;DHT22;45570;48.782;8.332;2023-05-10T07:34:02;14.30;99.90
59703;DHT22;45570;48.782;8.332;2023-05-10T07:36:32;14.40;99.90
59703;DHT22;45570;48.782;8.332;2023-05-10T07:39:02;14.30;99.90
59703;DHT22;45570;48.782;8.332;2023-05-10T07:41:32;14.40;99.90
59703;DHT22;45570;48.782;8.332;2023-05-10T07:44:02;14.40;99.90
59703;DHT22;45570;48.782;8.332;2023-05-10T07:46:32;14.50;99.90
59703;DHT22;45570;48.782;8.332;2023-05-10T07:49:01;14.50;99.90
59703;DHT22;45570;48.782;8.332;2023-05-10T07:51:30;14.50;99.90
59703;DHT22;45570;48.782;8.332;2023-05-10T07:53:59;14.40;99.90
59703;DHT22;45570;48.782;8.332;2023-05-10T07:56:32;14.50;99.90
59703;DHT22;45570;48.782;8.332;2023-05-10T07:59:03;14.50;99.90
59703;DHT22;45570;48.782;8.332;2023-05-10T08:01:33;14.50;99.90
59703;DHT22;45570;48.782;8.332;2023-05-10T08:04:03;14.50;99.90
59703;DHT22;45570;48.782;8.332;2023-05-10T08:06:32;14.60;99.90
59703;DHT22;45570;48.782;8.332;2023-05-10T08:09:01;14.60;99.90
59703;DHT22;45570;48.782;8.332;2023-05-10T08:11:32;14.60;99.90
59703;DHT22;45570;48.782;8.332;2023-05-10T08:14:01;14.60;99.90
59703;DHT22;45570;48.782;8.332;2023-05-10T08:16:30;14.60;99.90
59703;DHT22;45570;48.782;8.332;2023-05-10T08:19:00;14.60;99.90
59703;DHT22;45570;48.782;8.332;2023-05-10T08:21:30;14.60;99.90
59703;DHT22;45570;48.782;8.332;2023-05-10T08:24:00;14.70;99.90
59703;DHT22;45570;48.782;8.332;2023-05-10T08:26:30;14.80;99.90
59703;DHT22;45570;48.782;8.332;2023-05-10T08:29:00;14.80;99.90
59703;DHT22;45570;48.782;8.332;2023-05-10T08:31:29;14.80;99.90
59703;DHT22;45570;48.782;8.332;2023-05-10T08:33:58;14.90;99.90
59703;DHT22;45570;48.782;8.332;2023-05-10T08:36:27;15.00;99.90
59703;DHT22;45570;48.782;8.332;2023-05-10T08:38:58;14.90;99.90
59703;DHT22;45570;48.782;8.332;2023-05-10T08:41:31;14.90;99.90
59703;DHT22;45570;48.782;8.332;2023-05-10T08:44:04;14.80;99.90
59703;DHT22;45570;48.782;8.332;2023-05-10T08:46:34;14.90;99.90
59703;DHT22;45570;48.782;8.332;2023-05-10T08:49:07;14.80;99.90
59703;DHT22;45570;48.782;8.332;2023-05-10T08:51:40;14.80;99.90
59703;DHT22;45570;48.782;8.332;2023-05-10T08:54:10;14.90;99.90
59703;DHT22;45570;48.782;8.332;2023-05-10T08:56:44;15.00;99.90
59703;DHT22;45570;48.782;8.332;2023-05-10T08:59:16;15.00;99.90
59703;DHT22;45570;48.782;8.332;2023-05-10T09:01:46;15.00;99.90
59703;DHT22;45570;48.782;8.332;2023-05-10T09:04:17;15.00;99.90
59703;DHT22;45570;48.782;8.332;2023-05-10T09:06:46;15.00;99.90
59703;DHT22;45570;48.782;8.332;2023-05-10T09:09:16;14.90;99.90
59703;DHT22;45570;48.782;8.332;2023-05-10T09:11:48;14.70;99.90
59703;DHT22;45570;48.782;8.332;2023-05-10T09:14:18;14.60;99.90
59703;DHT22;45570;48.782;8.332;2023-05-10T09:16:47;14.30;99.90
59703;DHT22;45570;48.782;8.332;2023-05-10T09:19:17;14.10;99.90
59703;DHT22;45570;48.782;8.332;2023-05-10T09:21:46;13.90;99.90
59703;DHT22;45570;48.782;8.332;2023-05-10T09:24:15;13.80;99.90
59703;DHT22;45570;48.782;8.332;2023-05-10T09:26:49;13.80;99.90
59703;DHT22;45570;48.782;8.332;2023-05-10T09:29:19;13.80;99.90
59703;DHT22;45570;48.782;8.332;2023-05-10T09:31:49;13.90;99.90
59703;DHT22;45570;48.782;8.332;2023-05-10T09:34:22;14.00;99.90
59703;DHT22;45570;48.782;8.332;2023-05-10T09:36:58;14.20;99.90
59703;DHT22;45570;48.782;8.332;2023-05-10T09:39:32;14.30;99.90
59703;DHT22;45570;48.782;8.332;2023-05-10T09:42:04;14.50;99.90
59703;DHT22;45570;48.782;8.332;2023-05-10T09:44:34;14.50;99.90
59703;DHT22;45570;48.782;8.332;2023-05-10T09:47:03;14.60;99.90
59703;DHT22;45570;48.782;8.332;2023-05-10T09:49:33;14.60;99.90
59703;DHT22;45570;48.782;8.332;2023-05-10T09:52:03;14.70;99.90
59703;DHT22;45570;48.782;8.332;2023-05-10T09:54:34;14.80;99.90
59703;DHT22;45570;48.782;8.332;2023-05-10T09:57:05;14.80;99.90
59703;DHT22;45570;48.782;8.332;2023-05-10T09:59:34;14.60;99.90
59703;DHT22;45570;48.782;8.332;2023-05-10T10:02:03;14.70;99.90
59703;DHT22;45570;48.782;8.332;2023-05-10T10:04:39;14.70;99.90
59703;DHT22;45570;48.782;8.332;2023-05-10T10:07:09;14.80;99.90
59703;DHT22;45570;48.782;8.332;2023-05-10T10:09:38;14.90;99.90
59703;DHT22;45570;48.782;8.332;2023-05-10T10:12:09;15.00;99.90
59703;DHT22;45570;48.782;8.332;2023-05-10T10:14:39;15.10;99.90
59703;DHT22;45570;48.782;8.332;2023-05-10T10:17:09;15.40;99.90
59703;DHT22;45570;48.782;8.332;2023-05-10T10:19:39;15.50;99.90
59703;DHT22;45570;48.782;8.332;2023-05-10T10:22:09;15.50;99.90
59703;DHT22;45570;48.782;8.332;2023-05-10T10:24:39;15.40;99.90
59703;DHT22;45570;48.782;8.332;2023-05-10T10:27:16;15.40;99.90
59703;DHT22;45570;48.782;8.332;2023-05-10T10:29:58;15.20;99.90
59703;DHT22;45570;48.782;8.332;2023-05-10T10:32:38;15.20;99.90
59703;DHT22;45570;48.782;8.332;2023-05-10T10:35:11;15.00;99.90
59703;DHT22;45570;48.782;8.332;2023-05-10T10:37:46;14.80;99.90
59703;DHT22;45570;48.782;8.332;2023-05-10T10:40:28;14.60;99.90
59703;DHT22;45570;48.782;8.332;2023-05-10T10:43:23;14.40;99.90
59703;DHT22;45570;48.782;8.332;2023-05-10T10:46:11;14.30;99.90
59703;DHT22;45570;48.782;8.332;2023-05-10T10:48:47;14.40;99.90
59703;DHT22;45570;48.782;8.332;2023-05-10T10:51:16;14.20;99.90
59703;DHT22;45570;48.782;8.332;2023-05-10T10:53:48;14.00;99.90
59703;DHT22;45570;48.782;8.332;2023-05-10T10:56:22;14.00;99.90
59703;DHT22;45570;48.782;8.332;2023-05-10T10:58:53;14.00;99.90
59703;DHT22;45570;48.782;8.332;2023-05-10T11:01:33;14.00;99.90
59703;DHT22;45570;48.782;8.332;2023-05-10T11:04:18;13.90;99.90
59703;DHT22;45570;48.782;8.332;2023-05-10T11:06:48;14.00;99.90
59703;DHT22;45570;48.782;8.332;2023-05-10T11:09:18;13.90;99.90
59703;DHT22;45570;48.782;8.332;2023-05-10T11:11:52;13.80;99.90
59703;DHT22;45570;48.782;8.332;2023-05-10T11:14:24;13.90;99.90
59703;DHT22;45570;48.782;8.332;2023-05-10T11:16:54;13.90;99.90
59703;DHT22;45570;48.782;8.332;2023-05-10T11:19:27;13.90;99.90
59703;DHT22;45570;48.782;8.332;2023-05-10T11:22:12;14.00;99.90
59703;DHT22;45570;48.782;8.332;2023-05-10T11:24:56;14.00;99.90
59703;DHT22;45570;48.782;8.332;2023-05-10T11:27:25;14.00;99.90
59703;DHT22;45570;48.782;8.332;2023-05-10T11:29:56;14.10;99.90
59703;DHT22;45570;48.782;8.332;2023-05-10T11:32:25;14.10;99.90
59703;DHT22;45570;48.782;8.332;2023-05-10T11:34:55;14.20;99.90
59703;DHT22;45570;48.782;8.332;2023-05-10T11:37:27;14.30;99.90
59703;DHT22;45570;48.782;8.332;2023-05-10T11:39:59;14.30;99.90
59703;DHT22;45570;48.782;8.332;2023-05-10T11:42:28;14.30;99.90
59703;DHT22;45570;48.782;8.332;2023-05-10T11:45:00;14.40;99.90
59703;DHT22;45570;48.782;8.332;2023-05-10T11:47:29;14.50;99.90
59703;DHT22;45570;48.782;8.332;2023-05-10T11:49:59;14.50;99.90
59703;DHT22;45570;48.782;8.332;2023-05-10T11:52:28;14.70;99.90
59703;DHT22;45570;48.782;8.332;2023-05-10T11:54:57;14.80;99.90
59703;DHT22;45570;48.782;8.332;2023-05-10T11:57:27;15.00;99.90
59703;DHT22;45570;48.782;8.332;2023-05-10T11:59:59;15.10;99.90
59703;DHT22;45570;48.782;8.332;2023-05-10T12:02:33;15.10;99.90
59703;DHT22;45570;48.782;8.332;2023-05-10T12:05:04;15.10;99.90
59703;DHT22;45570;48.782;8.332;2023-05-10T12:07:34;15.10;99.90
59703;DHT22;45570;48.782;8.332;2023-05-10T12:10:05;15.20;99.90
59703;DHT22;45570;48.782;8.332;2023-05-10T12:12:38;15.40;99.90
59703;DHT22;45570;48.782;8.332;2023-05-10T12:15:17;15.50;99.90
59703;DHT22;45570;48.782;8.332;2023-05-10T12:17:48;15.90;99.90
59703;DHT22;45570;48.782;8.332;2023-05-10T12:20:19;16.30;99.90
59703;DHT22;45570;48.782;8.332;2023-05-10T12:22:51;16.80;99.90
59703;DHT22;45570;48.782;8.332;2023-05-10T12:25:21;17.10;99.90
59703;DHT22;45570;48.782;8.332;2023-05-10T12:27:53;17.20;99.90
59703;DHT22;45570;48.782;8.332;2023-05-10T12:30:25;17.10;99.90
59703;DHT22;45570;48.782;8.332;2023-05-10T12:33:00;17.10;99.90
59703;DHT22;45570;48.782;8.332;2023-05-10T12:35:31;17.00;99.90
59703;DHT22;45570;48.782;8.332;2023-05-10T12:38:01;17.10;99.90
59703;DHT22;45570;48.782;8.332;2023-05-10T12:40:51;17.00;99.90
59703;DHT22;45570;48.782;8.332;2023-05-10T12:43:20;16.90;99.90
59703;DHT22;45570;48.782;8.332;2023-05-10T12:45:51;16.80;99.90
59703;DHT22;45570;48.782;8.332;2023-05-10T12:48:20;16.70;99.90
59703;DHT22;45570;48.782;8.332;2023-05-10T12:50:50;16.60;99.90
59703;DHT22;45570;48.782;8.332;2023-05-10T12:53:19;16.60;99.90
59703;DHT22;45570;48.782;8.332;2023-05-10T12:55:48;16.80;99.90
59703;DHT22;45570;48.782;8.332;2023-05-10T12:58:17;16.90;99.90
59703;DHT22;45570;48.782;8.332;2023-05-10T13:00:55;17.00;99.90
59703;DHT22;45570;48.782;8.332;2023-05-10T13:03:25;17.20;99.90
59703;DHT22;45570;48.782;8.332;2023-05-10T13:05:54;17.10;99.90
59703;DHT22;45570;48.782;8.332;2023-05-10T13:08:23;16.90;99.90
59703;DHT22;45570;48.782;8.332;2023-05-10T13:10:53;16.80;99.90
59703;DHT22;45570;48.782;8.332;2023-05-10T13:13:22;16.50;99.90
59703;DHT22;45570;48.782;8.332;2023-05-10T13:15:51;16.40;99.90
59703;DHT22;45570;48.782;8.332;2023-05-10T13:18:22;16.20;99.90
59703;DHT22;45570;48.782;8.332;2023-05-10T13:20:52;16.10;99.90
59703;DHT22;45570;48.782;8.332;2023-05-10T13:23:22;16.00;99.90
59703;DHT22;45570;48.782;8.332;2023-05-10T13:25:52;16.00;99.90
59703;DHT22;45570;48.782;8.332;2023-05-10T13:28:21;16.20;99.90
59703;DHT22;45570;48.782;8.332;2023-05-10T13:30:50;16.60;99.90
59703;DHT22;45570;48.782;8.332;2023-05-10T13:33:20;16.90;99.90
59703;DHT22;45570;48.782;8.332;2023-05-10T13:35:50;17.30;99.90
59703;DHT22;45570;48.782;8.332;2023-05-10T13:38:22;17.60;99.90
59703;DHT22;45570;48.782;8.332;2023-05-10T13:40:51;18.00;99.90
59703;DHT22;45570;48.782;8.332;2023-05-10T13:43:21;18.30;99.90
59703;DHT22;45570;48.782;8.332;2023-05-10T13:45:50;18.60;99.90
59703;DHT22;45570;48.782;8.332;2023-05-10T13:48:20;18.80;99.90
59703;DHT22;45570;48.782;8.332;2023-05-10T13:50:50;18.70;99.90
59703;DHT22;45570;48.782;8.332;2023-05-10T13:53:20;18.50;99.90
59703;DHT22;45570;48.782;8.332;2023-05-10T13:55:49;18.60;99.90
59703;DHT22;45570;48.782;8.332;2023-05-10T13:58:18;18.60;99.90
59703;DHT22;45570;48.782;8.332;2023-05-10T14:00:48;18.60;99.90
59703;DHT22;45570;48.782;8.332;2023-05-10T14:03:17;18.70;99.90
59703;DHT22;45570;48.782;8.332;2023-05-10T14:05:47;19.00;99.90
59703;DHT22;45570;48.782;8.332;2023-05-10T14:08:18;19.00;99.90
59703;DHT22;45570;48.782;8.332;2023-05-10T14:10:47;18.80;99.90
59703;DHT22;45570;48.782;8.332;2023-05-10T14:13:18;18.80;99.90
59703;DHT22;45570;48.782;8.332;2023-05-10T14:15:47;18.70;99.90
59703;DHT22;45570;48.782;8.332;2023-05-10T14:18:17;18.50;99.90
59703;DHT22;45570;48.782;8.332;2023-05-10T14:20:48;18.20;99.90
59703;DHT22;45570;48.782;8.332;2023-05-10T14:23:19;18.10;99.90
59703;DHT22;45570;48.782;8.332;2023-05-10T14:25:51;17.90;99.90
59703;DHT22;45570;48.782;8.332;2023-05-10T14:28:21;17.80;99.90
59703;DHT22;45570;48.782;8.332;2023-05-10T14:30:51;17.90;99.90
59703;DHT22;45570;48.782;8.332;2023-05-10T14:33:20;17.90;99.90
59703;DHT22;45570;48.782;8.332;2023-05-10T14:35:49;17.70;99.90
59703;DHT22;45570;48.782;8.332;2023-05-10T14:38:21;17.90;99.90
59703;DHT22;45570;48.782;8.332;2023-05-10T14:40:51;17.80;99.90
59703;DHT22;45570;48.782;8.332;2023-05-10T14:43:20;17.70;99.90
59703;DHT22;45570;48.782;8.332;2023-05-10T14:45:49;17.60;99.90
59703;DHT22;45570;48.782;8.332;2023-05-10T14:48:19;17.50;99.90
59703;DHT22;45570;48.782;8.332;2023-05-10T14:50:48;17.50;99.90
59703;DHT22;45570;48.782;8.332;2023-05-10T14:53:21;17.60;99.90
59703;DHT22;45570;48.782;8.332;2023-05-10T14:55:51;17.60;99.90
59703;DHT22;45570;48.782;8.332;2023-05-10T14:58:20;17.50;99.90
59703;DHT22;45570;48.782;8.332;2023-05-10T15:00:49;17.50;99.90
59703;DHT22;45570;48.782;8.332;2023-05-10T15:03:19;17.40;99.90
59703;DHT22;45570;48.782;8.332;2023-05-10T15:05:49;17.20;99.90
59703;DHT22;45570;48.782;8.332;2023-05-10T15:08:20;17.30;99.90
59703;DHT22;45570;48.782;8.332;2023-05-10T15:10:50;17.20;99.90
59703;DHT22;45570;48.782;8.332;2023-05-10T15:13:19;17.00;99.90
59703;DHT22;45570;48.782;8.332;2023-05-10T15:15:49;16.80;99.90
59703;DHT22;45570;48.782;8.332;2023-05-10T15:18:18;16.60;99.90
59703;DHT22;45570;48.782;8.332;2023-05-10T15:20:47;16.30;99.90
59703;DHT22;45570;48.782;8.332;2023-05-10T15:23:17;16.30;99.90
59703;DHT22;45570;48.782;8.332;2023-05-10T15:25:48;16.20;99.90
59703;DHT22;45570;48.782;8.332;2023-05-10T15:28:19;16.20;99.90
59703;DHT22;45570;48.782;8.332;2023-05-10T15:30:52;16.30;99.90
59703;DHT22;45570;48.782;8.332;2023-05-10T15:33:21;16.30;99.90
59703;DHT22;45570;48.782;8.332;2023-05-10T15:35:50;16.40;99.90
59703;DHT22;45570;48.782;8.332;2023-05-10T15:38:21;16.50;99.90
59703;DHT22;45570;48.782;8.332;2023-05-10T15:40:55;16.50;99.90
59703;DHT22;45570;48.782;8.332;2023-05-10T15:43:25;16.60;99.90
59703;DHT22;45570;48.782;8.332;2023-05-10T15:45:54;16.60;99.90
59703;DHT22;45570;48.782;8.332;2023-05-10T15:48:23;16.70;99.90
59703;DHT22;45570;48.782;8.332;2023-05-10T15:50:53;16.80;99.90
59703;DHT22;45570;48.782;8.332;2023-05-10T15:53:22;16.80;99.90
59703;DHT22;45570;48.782;8.332;2023-05-10T15:55:53;16.70;99.90
59703;DHT22;45570;48.782;8.332;2023-05-10T15:58:22;16.60;99.90
59703;DHT22;45570;48.782;8.332;2023-05-10T16:00:51;16.40;99.90
59703;DHT22;45570;48.782;8.332;2023-05-10T16:03:20;16.40;99.90
59703;DHT22;45570;48.782;8.332;2023-05-10T16:05:50;16.30;99.90
59703;DHT22;45570;48.782;8.332;2023-05-10T16:08:23;16.10;99.90
59703;DHT22;45570;48.782;8.332;2023-05-10T16:10:54;16.10;99.90
59703;DHT22;45570;48.782;8.332;2023-05-10T16:13:24;16.10;99.90
59703;DHT22;45570;48.782;8.332;2023-05-10T16:16:01;16.10;99.90
59703;DHT22;45570;48.782;8.332;2023-05-10T16:18:31;16.10;99.90
59703;DHT22;45570;48.782;8.332;2023-05-10T16:21:00;16.20;99.90
59703;DHT22;45570;48.782;8.332;2023-05-10T16:23:30;16.10;99.90
59703;DHT22;45570;48.782;8.332;2023-05-10T16:26:00;16.10;99.90
59703;DHT22;45570;48.782;8.332;2023-05-10T16:28:30;16.00;99.90
59703;DHT22;45570;48.782;8.332;2023-05-10T16:30:59;16.00;99.90
59703;DHT22;45570;48.782;8.332;2023-05-10T16:33:28;16.00;99.90
59703;DHT22;45570;48.782;8.332;2023-05-10T16:35:57;16.00;99.90
59703;DHT22;45570;48.782;8.332;2023-05-10T16:38:26;16.00;99.90
59703;DHT22;45570;48.782;8.332;2023-05-10T16:40:55;15.90;99.90
59703;DHT22;45570;48.782;8.332;2023-05-10T16:43:26;15.80;99.90
59703;DHT22;45570;48.782;8.332;2023-05-10T16:45:55;15.80;99.90
59703;DHT22;45570;48.782;8.332;2023-05-10T16:48:25;15.80;99.90
59703;DHT22;45570;48.782;8.332;2023-05-10T16:50:54;15.80;99.90
59703;DHT22;45570;48.782;8.332;2023-05-10T16:53:23;15.80;99.90
59703;DHT22;45570;48.782;8.332;2023-05-10T16:55:52;15.70;99.90
59703;DHT22;45570;48.782;8.332;2023-05-10T16:58:21;15.60;99.90
59703;DHT22;45570;48.782;8.332;2023-05-10T17:00:52;15.70;99.90
59703;DHT22;45570;48.782;8.332;2023-05-10T17:03:21;15.70;99.90
59703;DHT22;45570;48.782;8.332;2023-05-10T17:05:51;15.60;99.90
59703;DHT22;45570;48.782;8.332;2023-05-10T17:08:21;15.60;99.90
59703;DHT22;45570;48.782;8.332;2023-05-10T17:10:50;15.60;99.90
59703;DHT22;45570;48.782;8.332;2023-05-10T17:13:19;15.50;99.90
59703;DHT22;45570;48.782;8.332;2023-05-10T17:15:48;15.50;99.90
59703;DHT22;45570;48.782;8.332;2023-05-10T17:18:19;15.50;99.90
59703;DHT22;45570;48.782;8.332;2023-05-10T17:20:50;15.40;99.90
59703;DHT22;45570;48.782;8.332;2023-05-10T17:23:19;15.30;99.90
59703;DHT22;45570;48.782;8.332;2023-05-10T17:25:48;15.30;99.90
59703;DHT22;45570;48.782;8.332;2023-05-10T17:28:17;15.20;99.90
59703;DHT22;45570;48.782;8.332;2023-05-10T17:30:53;15.20;99.90
59703;DHT22;45570;48.782;8.332;2023-05-10T17:33:25;15.20;99.90
59703;DHT22;45570;48.782;8.332;2023-05-10T17:35:54;15.10;99.90
59703;DHT22;45570;48.782;8.332;2023-05-10T17:38:24;15.00;99.90
59703;DHT22;45570;48.782;8.332;2023-05-10T17:40:54;15.00;99.90
59703;DHT22;45570;48.782;8.332;2023-05-10T17:43:27;14.80;99.90
59703;DHT22;45570;48.782;8.332;2023-05-10T17:45:57;14.80;99.90
59703;DHT22;45570;48.782;8.332;2023-05-10T17:48:28;14.80;99.90
59703;DHT22;45570;48.782;8.332;2023-05-10T17:50:57;14.80;99.90
59703;DHT22;45570;48.782;8.332;2023-05-10T17:53:26;14.70;99.90
59703;DHT22;45570;48.782;8.332;2023-05-10T17:55:56;14.60;99.90
59703;DHT22;45570;48.782;8.332;2023-05-10T17:58:27;14.50;99.90
59703;DHT22;45570;48.782;8.332;2023-05-10T18:00:58;14.50;99.90
59703;DHT22;45570;48.782;8.332;2023-05-10T18:03:29;14.40;99.90
59703;DHT22;45570;48.782;8.332;2023-05-10T18:06:00;14.40;99.90
59703;DHT22;45570;48.782;8.332;2023-05-10T18:08:30;14.40;99.90
59703;DHT22;45570;48.782;8.332;2023-05-10T18:11:01;14.40;99.90
59703;DHT22;45570;48.782;8.332;2023-05-10T18:13:30;14.40;99.90
59703;DHT22;45570;48.782;8.332;2023-05-10T18:15:59;14.30;99.90
59703;DHT22;45570;48.782;8.332;2023-05-10T18:18:30;14.30;99.90
59703;DHT22;45570;48.782;8.332;2023-05-10T18:21:00;14.10;99.90
59703;DHT22;45570;48.782;8.332;2023-05-10T18:23:30;14.00;99.90
59703;DHT22;45570;48.782;8.332;2023-05-10T18:25:59;13.90;99.90
59703;DHT22;45570;48.782;8.332;2023-05-10T18:28:30;13.80;99.90
59703;DHT22;45570;48.782;8.332;2023-05-10T18:30:59;13.70;99.90
59703;DHT22;45570;48.782;8.332;2023-05-10T18:33:31;13.70;99.90
59703;DHT22;45570;48.782;8.332;2023-05-10T18:36:01;13.50;99.90
59703;DHT22;45570;48.782;8.332;2023-05-10T18:38:30;13.50;99.90
59703;DHT22;45570;48.782;8.332;2023-05-10T18:40:59;13.40;99.90
59703;DHT22;45570;48.782;8.332;2023-05-10T18:43:29;13.30;99.90
59703;DHT22;45570;48.782;8.332;2023-05-10T18:46:00;13.30;99.90
59703;DHT22;45570;48.782;8.332;2023-05-10T18:48:31;13.20;99.90
59703;DHT22;45570;48.782;8.332;2023-05-10T18:51:00;13.20;99.90
59703;DHT22;45570;48.782;8.332;2023-05-10T18:53:30;13.10;99.90
59703;DHT22;45570;48.782;8.332;2023-05-10T18:56:00;13.00;99.90
59703;DHT22;45570;48.782;8.332;2023-05-10T18:58:30;12.90;99.90
59703;DHT22;45570;48.782;8.332;2023-05-10T19:01:00;12.90;99.90
59703;DHT22;45570;48.782;8.332;2023-05-10T19:03:32;13.00;99.90
59703;DHT22;45570;48.782;8.332;2023-05-10T19:06:04;12.80;99.90
59703;DHT22;45570;48.782;8.332;2023-05-10T19:08:34;12.80;99.90
59703;DHT22;45570;48.782;8.332;2023-05-10T19:11:04;12.60;99.90
59703;DHT22;45570;48.782;8.332;2023-05-10T19:13:34;12.50;99.90
59703;DHT22;45570;48.782;8.332;2023-05-10T19:16:03;12.50;99.90
59703;DHT22;45570;48.782;8.332;2023-05-10T19:18:38;12.40;99.90
59703;DHT22;45570;48.782;8.332;2023-05-10T19:21:15;12.30;99.90
59703;DHT22;45570;48.782;8.332;2023-05-10T19:23:45;12.30;99.90
59703;DHT22;45570;48.782;8.332;2023-05-10T19:26:15;12.20;99.90
59703;DHT22;45570;48.782;8.332;2023-05-10T19:28:44;12.20;99.90
59703;DHT22;45570;48.782;8.332;2023-05-10T19:31:13;12.20;99.90
59703;DHT22;45570;48.782;8.332;2023-05-10T19:33:44;12.20;99.90
59703;DHT22;45570;48.782;8.332;2023-05-10T19:36:13;12.20;99.90
59703;DHT22;45570;48.782;8.332;2023-05-10T19:38:43;12.20;99.90
59703;DHT22;45570;48.782;8.332;2023-05-10T19:41:12;12.10;99.90
59703;DHT22;45570;48.782;8.332;2023-05-10T19:43:42;12.10;99.90
59703;DHT22;45570;48.782;8.332;2023-05-10T19:46:11;12.10;99.90
59703;DHT22;45570;48.782;8.332;2023-05-10T19:48:45;12.10;99.90
59703;DHT22;45570;48.782;8.332;2023-05-10T19:51:15;12.10;99.90
59703;DHT22;45570;48.782;8.332;2023-05-10T19:53:45;12.10;99.90
59703;DHT22;45570;48.782;8.332;2023-05-10T19:56:14;12.10;99.90
59703;DHT22;45570;48.782;8.332;2023-05-10T19:58:44;12.10;99.90
59703;DHT22;45570;48.782;8.332;2023-05-10T20:01:14;12.00;99.90
59703;DHT22;45570;48.782;8.332;2023-05-10T20:03:45;12.00;99.90
59703;DHT22;45570;48.782;8.332;2023-05-10T20:06:14;11.90;99.90
59703;DHT22;45570;48.782;8.332;2023-05-10T20:08:44;11.90;99.90
59703;DHT22;45570;48.782;8.332;2023-05-10T20:11:18;11.80;99.90
59703;DHT22;45570;48.782;8.332;2023-05-10T20:13:48;11.80;99.90
59703;DHT22;45570;48.782;8.332;2023-05-10T20:16:17;11.80;99.90
59703;DHT22;45570;48.782;8.332;2023-05-10T20:18:48;11.70;99.90
59703;DHT22;45570;48.782;8.332;2023-05-10T20:21:20;11.70;99.90
59703;DHT22;45570;48.782;8.332;2023-05-10T20:23:50;11.80;99.90
59703;DHT22;45570;48.782;8.332;2023-05-10T20:26:19;11.70;99.90
59703;DHT22;45570;48.782;8.332;2023-05-10T20:28:51;11.60;99.90
59703;DHT22;45570;48.782;8.332;2023-05-10T20:31:21;11.60;99.90
59703;DHT22;45570;48.782;8.332;2023-05-10T20:33:51;11.50;99.90
59703;DHT22;45570;48.782;8.332;2023-05-10T20:36:21;11.50;99.90
59703;DHT22;45570;48.782;8.332;2023-05-10T20:38:50;11.50;99.90
59703;DHT22;45570;48.782;8.332;2023-05-10T20:41:20;11.50;99.90
59703;DHT22;45570;48.782;8.332;2023-05-10T20:43:50;11.50;99.90
59703;DHT22;45570;48.782;8.332;2023-05-10T20:46:19;11.60;99.90
59703;DHT22;45570;48.782;8.332;2023-05-10T20:48:51;11.60;99.90
59703;DHT22;45570;48.782;8.332;2023-05-10T20:51:20;11.60;99.90
59703;DHT22;45570;48.782;8.332;2023-05-10T20:53:49;11.60;99.90
59703;DHT22;45570;48.782;8.332;2023-05-10T20:56:18;11.70;99.90
59703;DHT22;45570;48.782;8.332;2023-05-10T20:58:48;11.70;99.90
59703;DHT22;45570;48.782;8.332;2023-05-10T21:01:17;11.80;99.90
59703;DHT22;45570;48.782;8.332;2023-05-10T21:03:47;11.80;99.90
59703;DHT22;45570;48.782;8.332;2023-05-10T21:06:18;11.80;99.90
59703;DHT22;45570;48.782;8.332;2023-05-10T21:08:48;11.90;99.90
59703;DHT22;45570;48.782;8.332;2023-05-10T21:11:17;11.90;99.90
59703;DHT22;45570;48.782;8.332;2023-05-10T21:13:46;11.90;99.90
59703;DHT22;45570;48.782;8.332;2023-05-10T21:16:15;11.90;99.90
59703;DHT22;45570;48.782;8.332;2023-05-10T21:18:44;11.90;99.90
59703;DHT22;45570;48.782;8.332;2023-05-10T21:21:14;12.00;99.90
59703;DHT22;45570;48.782;8.332;2023-05-10T21:23:46;11.90;99.90
59703;DHT22;45570;48.782;8.332;2023-05-10T21:26:16;11.90;99.90
59703;DHT22;45570;48.782;8.332;2023-05-10T21:28:45;11.90;99.90
59703;DHT22;45570;48.782;8.332;2023-05-10T21:31:14;11.90;99.90
59703;DHT22;45570;48.782;8.332;2023-05-10T21:33:43;11.90;99.90
59703;DHT22;45570;48.782;8.332;2023-05-10T21:36:13;11.90;99.90
59703;DHT22;45570;48.782;8.332;2023-05-10T21:38:42;11.90;99.90
59703;DHT22;45570;48.782;8.332;2023-05-10T21:41:13;11.90;99.90
59703;DHT22;45570;48.782;8.332;2023-05-10T21:43:42;11.90;99.90
59703;DHT22;45570;48.782;8.332;2023-05-10T21:46:11;11.90;99.90
59703;DHT22;45570;48.782;8.332;2023-05-10T21:48:40;11.90;99.90
59703;DHT22;45570;48.782;8.332;2023-05-10T21:51:10;11.90;99.90
59703;DHT22;45570;48.782;8.332;2023-05-10T21:53:39;11.90;99.90
59703;DHT22;45570;48.782;8.332;2023-05-10T21:56:08;11.90;99.90
59703;DHT22;45570;48.782;8.332;2023-05-10T21:58:38;11.90;99.90
59703;DHT22;45570;48.782;8.332;2023-05-10T22:01:08;11.90;99.90
59703;DHT22;45570;48.782;8.332;2023-05-10T22:03:37;11.90;99.90
59703;DHT22;45570;48.782;8.332;2023-05-10T22:06:06;11.90;99.90
59703;DHT22;45570;48.782;8.332;2023-05-10T22:08:36;12.00;99.90